Terminal Aerodrome Forecast
Issued by NWS Denver/Boulder, CO

Home | Current Version | Previous Version | Text Only | Print | Product List | Glossary On
Versions: 1 2 3 4 5 6 7 8 9 10 11 12 13 14 15 16 17 18 19 20 21 22 23 24 25 26 27 28 29 30 31 32 33 34 35 36 37 38 39 40 41 42 43 44 45 46 47
000
FTUS45 KBOU 210953 AAC
TAFDEN
TAF AMD
KDEN 210953Z 2110/2212 25006KT 1/4SM FG VV001
     FM211100 24006KT P6SM VCFG FEW001 BKN220
      TEMPO 2111/2113 1/4SM FG VV001
     FM211400 VRB05KT P6SM SCT220
     FM211900 03006KT P6SM FEW120 SCT220
     FM212300 33007KT P6SM SCT100 BKN220
     FM220300 23012KT P6SM FEW120 SCT220
     FM220600 20012KT P6SM FEW120 SCT220=

USA.gov is the U.S. government's official web portal to all federal, state and local government web resources and services.